createdAt,value
2019-02-24T00:00:40.945Z,100576.12
2019-02-24T00:05:46.209Z,100576.27
2019-02-24T00:10:51.490Z,100561.55
2019-02-24T00:15:56.737Z,100558.54
2019-02-24T00:21:02.237Z,100558.48
2019-02-24T00:26:07.431Z,100555.13
2019-02-24T00:31:12.915Z,100548.27
2019-02-24T00:36:18.104Z,100545.02
2019-02-24T00:41:23.286Z,100556.58
2019-02-24T00:46:28.901Z,100552.02
2019-02-24T00:51:34.303Z,100532.05
2019-02-24T00:56:39.559Z,100528.30
2019-02-24T01:01:44.760Z,100533.84
2019-02-24T01:06:50.292Z,100537.18
2019-02-24T01:11:55.494Z,100539.58
2019-02-24T01:17:01.055Z,100538.61
2019-02-24T01:22:06.602Z,100537.40
2019-02-24T01:27:12.185Z,100535.05
2019-02-24T01:32:17.473Z,100526.28
2019-02-24T01:37:22.751Z,100530.48
2019-02-24T01:42:28.040Z,100522.38
2019-02-24T01:47:34.286Z,100528.42
2019-02-24T01:52:39.761Z,100524.58
2019-02-24T01:57:45.289Z,100528.13
2019-02-24T02:02:50.975Z,100522.86
2019-02-24T02:07:56.201Z,100521.30
2019-02-24T02:13:01.457Z,100519.69
2019-02-24T02:18:07.055Z,100516.34
2019-02-24T02:23:12.248Z,100508.94
2019-02-24T02:28:18.404Z,100514.46
2019-02-24T02:33:23.842Z,100508.11
2019-02-24T02:38:29.040Z,100505.73
2019-02-24T02:43:34.516Z,100512.13
2019-02-24T02:48:39.970Z,100512.68
2019-02-24T02:53:45.229Z,100508.87
2019-02-24T02:58:54.395Z,100516.00
2019-02-24T03:03:58.575Z,100506.23
2019-02-24T03:09:05.491Z,100511.91
2019-02-24T03:14:12.299Z,100513.77
2019-02-24T03:19:17.495Z,100515.39
2019-02-24T03:24:22.702Z,100531.25
2019-02-24T03:29:28.205Z,100526.65
2019-02-24T03:34:33.397Z,100523.77
2019-02-24T03:39:39.210Z,100530.53
2019-02-24T03:44:44.429Z,100525.08
2019-02-24T03:49:49.728Z,100515.66
2019-02-24T03:54:55.257Z,100521.94
2019-02-24T04:00:00.556Z,100520.12
2019-02-24T04:05:06.117Z,100514.61
2019-02-24T04:10:11.876Z,100509.19
2019-02-24T04:15:17.180Z,100516.62
2019-02-24T04:20:22.277Z,100524.32
2019-02-24T04:25:27.367Z,100531.72
2019-02-24T04:30:32.532Z,100540.00
2019-02-24T04:35:37.944Z,100524.64
2019-02-24T04:40:43.830Z,100512.96
2019-02-24T04:45:48.951Z,100510.84
2019-02-24T04:50:53.970Z,100530.15
2019-02-24T04:55:58.970Z,100522.75
2019-02-24T05:01:05.156Z,100531.83
2019-02-24T05:06:10.579Z,100514.67
2019-02-24T05:11:15.734Z,100514.59
2019-02-24T05:16:20.817Z,100512.75
2019-02-24T05:21:26.754Z,100508.94
2019-02-24T05:26:32.133Z,100517.02
2019-02-24T05:31:37.136Z,100511.06
2019-02-24T05:36:42.457Z,100503.98
2019-02-24T05:41:47.613Z,100509.41
2019-02-24T05:46:52.835Z,100495.06
2019-02-24T05:51:58.433Z,100481.72
2019-02-24T05:57:03.590Z,100474.92
2019-02-24T06:02:08.742Z,100478.72
2019-02-24T06:07:13.854Z,100480.31
2019-02-24T06:12:19.433Z,100479.72
2019-02-24T06:17:24.971Z,100471.86
2019-02-24T06:22:30.057Z,100464.69
2019-02-24T06:27:35.129Z,100450.36
2019-02-24T06:32:40.507Z,100461.73
2019-02-24T06:37:45.573Z,100460.13
2019-02-24T06:42:51.944Z,100470.33
2019-02-24T06:47:57.362Z,100476.97
2019-02-24T06:53:02.508Z,100470.70
2019-02-24T06:58:07.910Z,100474.06
2019-02-24T07:03:13.627Z,100481.84
2019-02-24T07:08:19.604Z,100477.81
2019-02-24T07:13:24.840Z,100485.20
2019-02-24T07:18:30.375Z,100484.67
2019-02-24T07:23:35.730Z,100494.29
2019-02-24T07:28:40.815Z,100505.44
2019-02-24T07:33:46.167Z,100507.09
2019-02-24T07:38:51.178Z,100509.23
2019-02-24T07:43:56.375Z,100515.64
2019-02-24T07:49:01.918Z,100506.59
2019-02-24T07:54:08.363Z,100506.73
2019-02-24T07:59:13.520Z,100498.98
2019-02-24T08:04:18.781Z,100494.87
2019-02-24T08:09:23.871Z,100490.25
2019-02-24T08:14:29.265Z,100481.34
2019-02-24T08:19:34.722Z,100484.92
2019-02-24T08:24:39.977Z,100481.82
2019-02-24T08:29:45.432Z,100486.91
2019-02-24T08:34:52.919Z,100485.89
2019-02-24T08:39:57.703Z,100490.34
2019-02-24T08:45:03.303Z,100497.90
2019-02-24T08:50:09.084Z,100502.58
2019-02-24T08:55:14.258Z,100505.16
2019-02-24T09:00:19.661Z,100498.71
2019-02-24T09:05:24.870Z,100492.62
2019-02-24T09:10:29.942Z,100490.98
2019-02-24T09:15:35.309Z,100494.63
2019-02-24T09:20:40.558Z,100494.38
2019-02-24T09:25:46.933Z,100494.72
2019-02-24T09:31:00.508Z,100492.44
2019-02-24T09:35:59.269Z,100494.43
2019-02-24T09:41:04.418Z,100503.53
2019-02-24T09:46:09.526Z,100512.91
2019-02-24T09:51:14.502Z,100518.34
2019-02-24T09:56:19.584Z,100514.45
2019-02-24T10:01:25.160Z,100524.20
2019-02-24T10:06:30.330Z,100534.50
2019-02-24T10:11:35.552Z,100554.05
2019-02-24T10:16:40.740Z,100553.62
2019-02-24T10:21:46.517Z,100546.27
2019-02-24T10:26:52.921Z,100555.80
2019-02-24T10:31:58.106Z,100555.39
2019-02-24T10:37:03.589Z,100555.92
2019-02-24T10:42:08.737Z,100552.28
2019-02-24T10:47:13.846Z,100534.95
2019-02-24T10:52:20.306Z,100531.99
2019-02-24T10:57:25.790Z,100522.20
2019-02-24T11:02:31.255Z,100516.60
2019-02-24T11:07:36.431Z,100513.67
2019-02-24T11:12:41.777Z,100510.70
2019-02-24T11:17:46.962Z,100503.05
2019-02-24T11:22:52.175Z,100495.36
2019-02-24T11:27:57.379Z,100478.67
2019-02-24T11:33:03.255Z,100473.69
2019-02-24T11:38:08.301Z,100476.84
2019-02-24T11:43:15.399Z,100477.65
2019-02-24T11:48:20.553Z,100474.09
2019-02-24T11:53:26.109Z,100458.20
2019-02-24T11:58:31.259Z,100455.75
2019-02-24T12:03:36.479Z,100452.61
2019-02-24T12:08:41.852Z,100448.31
2019-02-24T12:13:46.849Z,100446.84
2019-02-24T12:18:51.989Z,100439.81
2019-02-24T12:23:57.676Z,100441.72
2019-02-24T12:29:02.838Z,100431.55
2019-02-24T12:34:07.998Z,100426.87
2019-02-24T12:39:13.192Z,100437.28
2019-02-24T12:44:18.301Z,100436.35
2019-02-24T12:49:23.712Z,100431.73
2019-02-24T12:54:29.393Z,100438.70
2019-02-24T12:59:35.619Z,100435.22
2019-02-24T13:04:40.929Z,100428.66
2019-02-24T13:09:47.186Z,100424.00
2019-02-24T13:14:52.931Z,100426.85
2019-02-24T13:19:58.462Z,100422.17
2019-02-24T13:25:03.760Z,100417.81
2019-02-24T13:30:09.369Z,100430.03
2019-02-24T13:35:14.681Z,100421.37
2019-02-24T13:40:20.157Z,100411.28
2019-02-24T13:45:30.091Z,100413.91
2019-02-24T13:50:36.042Z,100413.54
2019-02-24T13:55:41.274Z,100411.92
2019-02-24T14:00:46.520Z,100402.66
2019-02-24T14:05:51.791Z,100398.69
2019-02-24T14:10:56.956Z,100398.58
2019-02-24T14:16:04.115Z,100402.02
2019-02-24T14:21:09.274Z,100392.52
2019-02-24T14:26:15.811Z,100388.90
2019-02-24T14:31:20.945Z,100384.52
2019-02-24T14:36:27.829Z,100392.87
2019-02-24T14:41:33.290Z,100389.39
2019-02-24T14:46:39.281Z,100393.53
2019-02-24T14:51:44.569Z,100393.81
2019-02-24T14:56:50.213Z,100390.98
2019-02-24T15:01:55.504Z,100388.94
2019-02-24T15:07:02.576Z,100387.59
2019-02-24T15:12:07.858Z,100398.53
2019-02-24T15:17:13.395Z,100406.84
2019-02-24T15:22:18.531Z,100399.73
2019-02-24T15:27:23.778Z,100397.61
2019-02-24T15:32:29.005Z,100402.87
2019-02-24T15:37:34.915Z,100406.33
2019-02-24T15:42:40.530Z,100412.12
2019-02-24T15:47:45.749Z,100418.97
2019-02-24T15:52:51.059Z,100419.77
2019-02-24T15:57:56.233Z,100416.72
2019-02-24T16:03:02.119Z,100416.86
2019-02-24T16:08:07.855Z,100418.92
2019-02-24T16:13:17.005Z,100410.93
2019-02-24T16:18:22.974Z,100411.77
2019-02-24T16:23:28.215Z,100407.64
2019-02-24T16:28:34.544Z,100406.46
2019-02-24T16:33:39.769Z,100402.67
2019-02-24T16:38:45.483Z,100407.48
2019-02-24T16:43:50.749Z,100421.84
2019-02-24T16:48:56.162Z,100413.59
2019-02-24T16:54:01.498Z,100414.42
2019-02-24T16:59:06.839Z,100415.14
2019-02-24T17:04:12.238Z,100415.08
2019-02-24T17:09:18.031Z,100405.31
2019-02-24T17:14:24.910Z,100413.64
2019-02-24T17:19:32.165Z,100410.33
2019-02-24T17:24:37.552Z,100407.25
2019-02-24T17:29:43.030Z,100422.39
2019-02-24T17:34:48.195Z,100425.00
2019-02-24T17:39:53.737Z,100431.13
2019-02-24T17:44:59.050Z,100436.40
2019-02-24T17:50:04.500Z,100445.70
2019-02-24T17:55:10.757Z,100437.73
2019-02-24T18:00:20.383Z,100445.16
2019-02-24T18:05:25.781Z,100445.18
2019-02-24T18:10:30.881Z,100443.41
2019-02-24T18:15:36.577Z,100461.94
2019-02-24T18:20:41.731Z,100464.48
2019-02-24T18:25:47.812Z,100465.02
2019-02-24T18:30:52.895Z,100453.00
2019-02-24T18:35:59.861Z,100454.78
2019-02-24T18:41:05.924Z,100453.72
2019-02-24T18:46:11.495Z,100454.56
2019-02-24T18:51:16.891Z,100468.06
2019-02-24T18:56:21.974Z,100460.87
2019-02-24T19:01:27.159Z,100466.28
2019-02-24T19:06:38.986Z,100476.66
2019-02-24T19:11:39.826Z,100469.49
2019-02-24T19:16:45.336Z,100473.42
2019-02-24T19:21:50.483Z,100467.78
2019-02-24T19:26:56.720Z,100465.47
2019-02-24T19:32:02.931Z,100461.08
2019-02-24T19:37:08.389Z,100463.92
2019-02-24T19:42:13.716Z,100462.34
2019-02-24T19:47:19.195Z,100474.64
2019-02-24T19:52:24.661Z,100471.13
2019-02-24T19:57:29.900Z,100476.01
2019-02-24T20:02:35.029Z,100479.30
2019-02-24T20:07:40.588Z,100468.17
2019-02-24T20:12:46.000Z,100465.78
2019-02-24T20:17:51.153Z,100467.36
2019-02-24T20:22:56.986Z,100473.42
2019-02-24T20:28:02.620Z,100469.84
2019-02-24T20:33:07.703Z,100473.66
2019-02-24T20:38:13.409Z,100477.22
2019-02-24T20:43:18.819Z,100474.72
2019-02-24T20:48:25.461Z,100477.69
2019-02-24T20:53:30.550Z,100483.30
2019-02-24T20:58:36.360Z,100482.34
2019-02-24T21:03:41.836Z,100483.27
2019-02-24T21:08:47.197Z,100487.45
2019-02-24T21:13:52.830Z,100493.63
2019-02-24T21:18:58.319Z,100492.23
2019-02-24T21:24:04.158Z,100496.88
2019-02-24T21:29:09.314Z,100493.30
2019-02-24T21:34:14.673Z,100497.94
2019-02-24T21:39:20.636Z,100506.14
2019-02-24T21:44:25.741Z,100497.34
2019-02-24T21:49:31.140Z,100495.13
2019-02-24T21:54:36.606Z,100481.56
2019-02-24T21:59:41.693Z,100495.09
2019-02-24T22:04:46.780Z,100496.00
2019-02-24T22:09:52.820Z,100485.52
2019-02-24T22:14:57.906Z,100485.16
2019-02-24T22:20:02.981Z,100489.39
2019-02-24T22:25:08.873Z,100496.87
2019-02-24T22:30:15.582Z,100492.80
2019-02-24T22:35:20.741Z,100480.41
2019-02-24T22:40:26.198Z,100489.05
2019-02-24T22:45:31.390Z,100485.04
2019-02-24T22:50:36.482Z,100501.33
2019-02-24T22:55:41.647Z,100504.58
2019-02-24T23:00:57.596Z,100498.33
2019-02-24T23:06:04.669Z,100496.88
2019-02-24T23:11:09.899Z,100494.53
2019-02-24T23:16:15.051Z,100490.96
2019-02-24T23:21:20.269Z,100484.57
2019-02-24T23:26:25.717Z,100491.47
2019-02-24T23:31:30.877Z,100489.39
2019-02-24T23:36:36.069Z,100503.20
2019-02-24T23:41:41.130Z,100509.27
2019-02-24T23:46:46.638Z,100506.84
2019-02-24T23:51:51.718Z,100510.48
2019-02-24T23:56:56.798Z,100503.69
